METAR AND TAF INFORMATION
METAR FOR EHWO
ADDS - METARS form results

(0644 UTC 09 April 2020)
Data provider http://aviationweather.gov/metar/data/
 
METAR text: EHWO 090633Z AUTO 07006KT 010V090 8000 BR OVC098 11/08 Q1024 BLU
Conditions at: EHWO (WOENSDRECHT RNLA, NL) observed 0633 UTC 09 April 2020
Temperature: 11.0°C (52°F)
Dewpoint: 8.0°C (46°F) [RH = 82%]
Pressure (altimeter): 30.24 inches Hg (1024.0 mb)
Winds: from the ENE (70 degrees) at 7 MPH (6 knots; 3.1 m/s)
Visibility: 5 miles ( 8 km)
Ceiling: 9800 feet AGL
Clouds: overcast cloud deck at 9800 feet AGL
Weather: BR  (mist)

METAR text: EHWO 090629Z AUTO 07005KT 010V070 7000 BR OVC099 11/08 Q1024 WHT
Conditions at: EHWO (WOENSDRECHT RNLA, NL) observed 0629 UTC 09 April 2020
Temperature: 11.0°C (52°F)
Dewpoint: 8.0°C (46°F) [RH = 82%]
Pressure (altimeter): 30.24 inches Hg (1024.0 mb)
Winds: from the ENE (70 degrees) at 6 MPH (5 knots; 2.6 m/s)
Visibility: 4 miles ( 7 km)
Ceiling: 9900 feet AGL
Clouds: overcast cloud deck at 9900 feet AGL
Weather: BR  (mist)

METAR text: EHWO 090625Z AUTO 07005KT 010V070 8000 BR OVC098 11/08 Q1024 BLU
Conditions at: EHWO (WOENSDRECHT RNLA, NL) observed 0625 UTC 09 April 2020
Temperature: 11.0°C (52°F)
Dewpoint: 8.0°C (46°F) [RH = 82%]
Pressure (altimeter): 30.24 inches Hg (1024.0 mb)
Winds: from the ENE (70 degrees) at 6 MPH (5 knots; 2.6 m/s)
Visibility: 5 miles ( 8 km)
Ceiling: 9800 feet AGL
Clouds: overcast cloud deck at 9800 feet AGL
Weather: BR  (mist)

METAR text: EHWO 090609Z AUTO 06005KT 6000 BR OVC098 11/08 Q1024 WHT
Conditions at: EHWO (WOENSDRECHT RNLA, NL) observed 0609 UTC 09 April 2020
Temperature: 11.0°C (52°F)
Dewpoint: 8.0°C (46°F) [RH = 82%]
Pressure (altimeter): 30.24 inches Hg (1024.0 mb)
Winds: from the ENE (60 degrees) at 6 MPH (5 knots; 2.6 m/s)
Visibility: 4 miles ( 6 km)
Ceiling: 9800 feet AGL
Clouds: overcast cloud deck at 9800 feet AGL
Weather: BR  (mist)

METAR text: EHWO 090556Z AUTO 07005KT 010V080 5000 BR BKN099 10/08 Q1024 WHT
Conditions at: EHWO (WOENSDRECHT RNLA, NL) observed 0556 UTC 09 April 2020
Temperature: 10.0°C (50°F)
Dewpoint: 8.0°C (46°F) [RH = 87%]
Pressure (altimeter): 30.24 inches Hg (1024.0 mb)
Winds: from the ENE (70 degrees) at 6 MPH (5 knots; 2.6 m/s)
Visibility: 3 miles ( 5 km)
Ceiling: 9900 feet AGL
Clouds: broken clouds at 9900 feet AGL
Weather: BR  (mist)

METAR text: EHWO 090555Z AUTO 07005KT 020V080 4500 BR SCT099 10/08 Q1024 GRN
Conditions at: EHWO (WOENSDRECHT RNLA, NL) observed 0555 UTC 09 April 2020
Temperature: 10.0°C (50°F)
Dewpoint: 8.0°C (46°F) [RH = 87%]
Pressure (altimeter): 30.24 inches Hg (1024.0 mb)
Winds: from the ENE (70 degrees) at 6 MPH (5 knots; 2.6 m/s)
Visibility: 2.80 miles (4.51 km)
Ceiling: at least 12,000 feet AGL
Clouds: scattered clouds at 9900 feet AGL
Weather: BR  (mist)

Forecast for: EHWO (WOENSDRECHT RNLA, NL)
Text: TAF EHWO 090444Z 0905/0917 06006KT 7000 NSC
Forecast period: 0500 to 1700 UTC 09 April 2020
Forecast type: FROM: standard forecast or significant change
Winds: from the ENE (60 degrees) at 7 MPH (6 knots; 3.1 m/s)
Visibility: 4 miles (7 km)
Ceiling: unknown
Clouds: missing
Weather: no significant weather forecast for this period

 AIRPORT MAP

 RUNWAY INFORMATION
Runway 07 Runway length 7996 ft Runway width 148 ft
Runway elevation 39 ft Runway displaced threshold 0 ft Runway heading 69
Runway 25 Runway length 7996 ft Runway width 148 ft
Runway elevation 63 ft Runway displaced threshold 0 ft Runway heading 249

 AIRPORT FREQUENCIES
Type APP Name RAPCON WES Frequency 123.575 MHZ
Type ARR Name ARRIVAL Frequency 123.575 MHZ
Type TWR Name TWR Frequency 118.5 MHZ

 AIRPORT NEAR NAVIGATION AIDS
Type TACAN Name Woensdrecht Frequency 115000 KHZ